createdAt,value
2023-05-06T00:00:22.316Z,14.85
2023-05-06T00:02:49.738Z,14.45
2023-05-06T00:05:18.803Z,16.67
2023-05-06T00:07:46.390Z,14.73
2023-05-06T00:10:14.101Z,15.43
2023-05-06T00:12:41.449Z,12.85
2023-05-06T00:15:09.544Z,14.82
2023-05-06T00:17:37.256Z,13.55
2023-05-06T00:20:06.024Z,14.30
2023-05-06T00:22:33.688Z,14.90
2023-05-06T00:25:01.075Z,16.00
2023-05-06T00:27:28.442Z,14.25
2023-05-06T00:29:55.746Z,15.80
2023-05-06T00:32:23.190Z,18.58
2023-05-06T00:34:51.546Z,15.98
2023-05-06T00:37:18.923Z,17.15
2023-05-06T00:39:46.233Z,16.10
2023-05-06T00:42:13.809Z,15.73
2023-05-06T00:44:41.179Z,17.08
2023-05-06T00:47:08.729Z,13.38
2023-05-06T00:49:36.083Z,20.58
2023-05-06T00:52:04.455Z,15.05
2023-05-06T00:54:32.475Z,15.43
2023-05-06T00:57:00.040Z,15.68
2023-05-06T00:59:27.549Z,15.82
2023-05-06T01:01:55.029Z,16.88
2023-05-06T01:04:24.131Z,17.15
2023-05-06T01:07:10.478Z,17.92
2023-05-06T01:10:00.616Z,13.38
2023-05-06T01:12:39.901Z,15.85
2023-05-06T01:15:38.664Z,16.75
2023-05-06T01:18:10.312Z,14.70
2023-05-06T01:20:39.414Z,17.42
2023-05-06T01:23:10.114Z,16.13
2023-05-06T01:25:37.548Z,15.90
2023-05-06T01:28:07.559Z,17.02
2023-05-06T01:30:59.568Z,15.10
2023-05-06T01:33:53.677Z,17.15
2023-05-06T01:36:41.080Z,14.00
2023-05-06T01:39:22.226Z,15.88
2023-05-06T01:41:51.440Z,14.65
2023-05-06T01:44:22.283Z,16.33
2023-05-06T01:46:51.526Z,16.33
2023-05-06T01:49:19.988Z,18.55
2023-05-06T01:51:53.558Z,16.35
2023-05-06T01:54:21.030Z,17.65
2023-05-06T01:56:48.416Z,16.23
2023-05-06T01:59:16.019Z,15.52
2023-05-06T02:01:43.737Z,20.40
2023-05-06T02:04:11.221Z,15.65
2023-05-06T02:06:38.710Z,20.27
2023-05-06T02:09:06.551Z,17.13
2023-05-06T02:11:38.837Z,16.25
2023-05-06T02:14:07.994Z,16.42
2023-05-06T02:16:36.512Z,18.30
2023-05-06T02:19:04.028Z,15.90
2023-05-06T02:21:31.973Z,18.63
2023-05-06T02:23:59.395Z,17.30
2023-05-06T02:26:26.807Z,17.05
2023-05-06T02:28:54.154Z,19.48
2023-05-06T02:31:21.524Z,19.17
2023-05-06T02:33:48.936Z,17.13
2023-05-06T02:36:16.329Z,18.95
2023-05-06T02:38:43.709Z,17.13
2023-05-06T02:41:10.999Z,17.23
2023-05-06T02:43:38.353Z,18.63
2023-05-06T02:46:05.730Z,17.70
2023-05-06T02:48:33.195Z,18.33
2023-05-06T02:51:02.030Z,21.33
2023-05-06T02:53:29.605Z,19.40
2023-05-06T02:55:56.999Z,17.13
2023-05-06T02:58:24.542Z,18.83
2023-05-06T03:00:52.143Z,17.27
2023-05-06T03:03:19.581Z,15.73
2023-05-06T03:05:47.034Z,15.63
2023-05-06T03:08:14.385Z,16.67
2023-05-06T03:10:41.832Z,20.65
2023-05-06T03:13:09.490Z,16.63
2023-05-06T03:15:37.397Z,17.02
2023-05-06T03:18:04.892Z,15.45
2023-05-06T03:20:32.340Z,17.73
2023-05-06T03:23:01.485Z,16.48
2023-05-06T03:25:29.702Z,17.90
2023-05-06T03:27:57.548Z,18.50
2023-05-06T03:30:24.850Z,18.73
2023-05-06T03:32:56.423Z,16.77
2023-05-06T03:35:29.864Z,16.00
2023-05-06T03:37:59.780Z,16.25
2023-05-06T03:40:33.512Z,15.95
2023-05-06T03:43:01.361Z,18.58
2023-05-06T03:45:28.948Z,16.02
2023-05-06T03:47:58.959Z,14.27
2023-05-06T03:50:27.208Z,16.30
2023-05-06T03:52:55.285Z,15.75
2023-05-06T03:55:25.268Z,17.05
2023-05-06T03:57:52.691Z,15.73
2023-05-06T04:00:21.755Z,16.55
2023-05-06T04:02:53.160Z,17.77
2023-05-06T04:05:30.158Z,19.08
2023-05-06T04:07:58.811Z,17.15
2023-05-06T04:10:26.482Z,16.92
2023-05-06T04:12:57.656Z,17.98
2023-05-06T04:15:32.777Z,17.80
2023-05-06T04:18:01.628Z,21.08
2023-05-06T04:20:29.742Z,19.15
2023-05-06T04:23:01.446Z,20.35
2023-05-06T04:25:30.382Z,21.63
2023-05-06T04:27:57.690Z,26.95
2023-05-06T04:30:25.372Z,28.17
2023-05-06T04:32:53.226Z,18.88
2023-05-06T04:35:21.739Z,38.38
2023-05-06T04:37:49.136Z,48.85
2023-05-06T04:40:23.428Z,21.90
2023-05-06T04:42:52.397Z,27.80
2023-05-06T04:45:24.436Z,21.02
2023-05-06T04:47:52.866Z,28.98
2023-05-06T04:50:20.635Z,29.77
2023-05-06T04:52:48.413Z,23.88
2023-05-06T04:55:18.270Z,26.60
2023-05-06T04:57:50.235Z,23.83
2023-05-06T05:00:18.109Z,27.42
2023-05-06T05:02:46.893Z,16.85
2023-05-06T05:05:16.155Z,20.75
2023-05-06T05:07:46.487Z,20.40
2023-05-06T05:10:14.548Z,21.02
2023-05-06T05:12:42.101Z,23.40
2023-05-06T05:15:10.141Z,19.48
2023-05-06T05:17:38.591Z,20.83
2023-05-06T05:20:08.221Z,19.48
2023-05-06T05:22:36.602Z,21.35
2023-05-06T05:25:06.981Z,18.17
2023-05-06T05:27:36.378Z,18.83
2023-05-06T05:30:03.951Z,17.33
2023-05-06T05:32:34.625Z,20.55
2023-05-06T05:35:02.012Z,19.60
2023-05-06T05:37:29.403Z,18.50
2023-05-06T05:39:57.344Z,17.50
2023-05-06T05:42:25.390Z,18.95
2023-05-06T05:44:53.274Z,16.88
2023-05-06T05:47:21.797Z,17.90
2023-05-06T05:49:49.588Z,15.90
2023-05-06T05:52:17.149Z,17.05
2023-05-06T05:54:44.558Z,17.88
2023-05-06T05:57:12.301Z,17.60
2023-05-06T05:59:39.905Z,18.35
2023-05-06T06:02:07.882Z,19.10
2023-05-06T06:04:35.178Z,18.67
2023-05-06T06:07:04.304Z,18.10
2023-05-06T06:09:36.334Z,19.15
2023-05-06T06:12:04.684Z,17.10
2023-05-06T06:14:34.423Z,16.85
2023-05-06T06:17:02.068Z,19.10
2023-05-06T06:19:30.133Z,17.30
2023-05-06T06:21:57.800Z,17.15
2023-05-06T06:24:25.334Z,17.85
2023-05-06T06:26:52.682Z,17.30
2023-05-06T06:29:20.205Z,15.52
2023-05-06T06:31:47.707Z,19.05
2023-05-06T06:34:15.050Z,17.13
2023-05-06T06:36:46.122Z,22.20
2023-05-06T06:39:13.805Z,17.60
2023-05-06T06:41:41.720Z,20.02
2023-05-06T06:44:09.026Z,17.08
2023-05-06T06:46:36.374Z,19.13
2023-05-06T06:49:03.764Z,19.48
2023-05-06T06:51:31.917Z,17.65
2023-05-06T06:53:59.291Z,20.00
2023-05-06T06:56:26.574Z,18.92
2023-05-06T06:58:53.907Z,20.90
2023-05-06T07:01:21.279Z,18.25
2023-05-06T07:03:48.672Z,19.88
2023-05-06T07:06:16.034Z,19.35
2023-05-06T07:08:43.450Z,17.67
2023-05-06T07:11:12.109Z,19.10
2023-05-06T07:13:39.416Z,17.95
2023-05-06T07:16:06.843Z,18.35
2023-05-06T07:18:34.448Z,19.65
2023-05-06T07:21:01.902Z,17.48
2023-05-06T07:23:31.109Z,17.42
2023-05-06T07:25:59.698Z,16.27
2023-05-06T07:28:27.134Z,15.93
2023-05-06T07:30:54.675Z,18.05
2023-05-06T07:33:22.030Z,18.30
2023-05-06T07:35:49.369Z,18.40
2023-05-06T07:38:16.706Z,18.10
2023-05-06T07:40:44.065Z,18.48
2023-05-06T07:43:11.391Z,17.52
2023-05-06T07:45:38.742Z,19.25
2023-05-06T07:48:06.414Z,19.67
2023-05-06T07:50:34.459Z,20.55
2023-05-06T07:53:02.109Z,24.33
2023-05-06T07:55:29.824Z,21.08
2023-05-06T07:57:57.237Z,20.90
2023-05-06T08:00:24.759Z,18.42
2023-05-06T08:02:52.105Z,19.88
2023-05-06T08:05:19.549Z,21.42
2023-05-06T08:07:47.006Z,19.77
2023-05-06T08:10:14.362Z,22.45
2023-05-06T08:12:42.005Z,23.15
2023-05-06T08:15:10.371Z,23.05
2023-05-06T08:17:38.194Z,24.75
2023-05-06T08:20:07.166Z,26.85
2023-05-06T08:22:34.549Z,25.92
2023-05-06T08:25:02.015Z,22.15
2023-05-06T08:27:29.336Z,24.60
2023-05-06T08:29:56.794Z,24.17
2023-05-06T08:32:24.313Z,25.30
2023-05-06T08:34:52.208Z,26.25
2023-05-06T08:37:19.596Z,26.42
2023-05-06T08:39:46.932Z,29.90
2023-05-06T08:42:14.326Z,30.92
2023-05-06T08:44:43.767Z,33.97
2023-05-06T08:47:11.097Z,30.85
2023-05-06T08:49:38.557Z,30.02
2023-05-06T08:52:06.398Z,30.30
2023-05-06T08:54:37.099Z,26.58
2023-05-06T08:57:10.386Z,27.17
2023-05-06T08:59:41.536Z,26.77
2023-05-06T09:02:10.648Z,23.95
2023-05-06T09:04:38.158Z,26.98
2023-05-06T09:07:05.454Z,27.13
2023-05-06T09:09:33.382Z,22.35
2023-05-06T09:12:02.258Z,24.00
2023-05-06T09:14:29.883Z,18.63
2023-05-06T09:16:58.103Z,23.35
2023-05-06T09:19:26.264Z,20.50
2023-05-06T09:21:53.626Z,25.05
2023-05-06T09:24:21.204Z,20.35
2023-05-06T09:26:48.599Z,21.52
2023-05-06T09:29:16.152Z,22.35
2023-05-06T09:31:45.690Z,18.85
2023-05-06T09:34:14.223Z,19.20
2023-05-06T09:36:41.927Z,17.30
2023-05-06T09:39:09.996Z,17.98
2023-05-06T09:41:37.956Z,17.48
2023-05-06T09:44:06.182Z,22.73
2023-05-06T09:46:33.672Z,22.15
2023-05-06T09:49:01.636Z,20.48
2023-05-06T09:51:31.082Z,17.80
2023-05-06T09:54:00.754Z,19.90
2023-05-06T09:56:29.399Z,18.85
2023-05-06T09:58:58.341Z,21.10
2023-05-06T10:01:36.114Z,15.00
2023-05-06T10:04:09.829Z,17.48
2023-05-06T10:06:40.871Z,14.70
2023-05-06T10:09:09.397Z,15.27
2023-05-06T10:11:37.437Z,17.63
2023-05-06T10:14:07.076Z,16.33
2023-05-06T10:16:36.259Z,13.00
2023-05-06T10:19:06.650Z,15.30
2023-05-06T10:21:39.594Z,16.58
2023-05-06T10:24:11.373Z,14.68
2023-05-06T10:26:40.315Z,14.32
2023-05-06T10:29:10.307Z,23.55
2023-05-06T10:31:55.854Z,17.88
2023-05-06T10:34:24.984Z,14.50
2023-05-06T10:36:57.384Z,17.20
2023-05-06T10:39:25.982Z,13.05
2023-05-06T10:41:53.448Z,15.30
2023-05-06T10:44:56.485Z,17.13
2023-05-06T10:47:23.934Z,14.80
2023-05-06T10:50:24.198Z,14.90
2023-05-06T10:52:55.425Z,14.05
2023-05-06T10:55:32.661Z,12.93
2023-05-06T10:58:19.261Z,15.25
2023-05-06T11:00:55.855Z,16.05
2023-05-06T11:03:24.306Z,11.50
2023-05-06T11:05:52.721Z,11.38
2023-05-06T11:08:27.161Z,11.15
2023-05-06T11:10:54.861Z,11.02
2023-05-06T11:13:26.588Z,11.05
2023-05-06T11:15:56.193Z,13.38
2023-05-06T11:18:27.630Z,12.07
2023-05-06T11:21:03.484Z,15.23
2023-05-06T11:23:44.444Z,14.20
2023-05-06T11:26:13.195Z,10.43
2023-05-06T11:28:43.589Z,12.85
2023-05-06T11:31:12.555Z,14.15
2023-05-06T11:33:50.352Z,12.30
2023-05-06T11:36:19.699Z,11.95
2023-05-06T11:38:59.017Z,14.65
2023-05-06T11:41:26.400Z,11.65
2023-05-06T11:43:53.875Z,15.20
2023-05-06T11:46:23.858Z,16.20
2023-05-06T11:48:51.367Z,17.70
2023-05-06T11:51:25.166Z,11.00
2023-05-06T11:53:54.156Z,13.85
2023-05-06T11:56:21.469Z,11.85
2023-05-06T11:58:48.785Z,10.90
2023-05-06T12:01:16.114Z,13.85
2023-05-06T12:03:43.635Z,11.52
2023-05-06T12:06:12.728Z,12.00
2023-05-06T12:08:40.370Z,8.75
2023-05-06T12:11:09.044Z,7.35
2023-05-06T12:13:37.723Z,10.02
2023-05-06T12:16:05.873Z,9.05
2023-05-06T12:18:33.892Z,11.10
2023-05-06T12:21:06.008Z,9.15
2023-05-06T12:23:33.493Z,11.75
2023-05-06T12:26:06.219Z,9.95
2023-05-06T12:28:35.499Z,8.85
2023-05-06T12:31:20.090Z,10.90
2023-05-06T12:33:51.418Z,9.90
2023-05-06T12:36:19.428Z,11.52
2023-05-06T12:38:54.607Z,11.18
2023-05-06T12:41:23.322Z,10.55
2023-05-06T12:43:52.817Z,10.43
2023-05-06T12:46:20.261Z,8.88
2023-05-06T12:49:01.723Z,10.48
2023-05-06T12:51:30.970Z,9.05
2023-05-06T12:53:58.480Z,9.60
2023-05-06T12:56:25.972Z,10.35
2023-05-06T12:59:03.425Z,10.02
2023-05-06T13:01:31.687Z,10.15
2023-05-06T13:03:59.281Z,9.38
2023-05-06T13:06:26.673Z,11.93
2023-05-06T13:08:54.048Z,7.80
2023-05-06T13:11:22.274Z,10.50
2023-05-06T13:13:49.641Z,10.05
2023-05-06T13:16:17.114Z,9.20
2023-05-06T13:18:44.520Z,10.90
2023-05-06T13:21:13.212Z,10.02
2023-05-06T13:23:47.078Z,10.07
2023-05-06T13:26:15.102Z,10.02
2023-05-06T13:28:42.528Z,9.43
2023-05-06T13:31:10.227Z,10.45
2023-05-06T13:33:37.929Z,12.85
2023-05-06T13:36:05.773Z,8.88
2023-05-06T13:38:33.200Z,8.70
2023-05-06T13:41:01.717Z,9.90
2023-05-06T13:43:29.054Z,8.50
2023-05-06T13:45:56.456Z,9.18
2023-05-06T13:48:23.846Z,7.63
2023-05-06T13:50:51.344Z,8.73
2023-05-06T13:53:18.742Z,9.68
2023-05-06T13:55:46.987Z,8.75
2023-05-06T13:58:14.488Z,8.82
2023-05-06T14:00:41.824Z,7.50
2023-05-06T14:03:09.684Z,9.95
2023-05-06T14:05:37.265Z,9.48
2023-05-06T14:08:08.349Z,8.75
2023-05-06T14:10:35.760Z,9.27
2023-05-06T14:13:06.209Z,9.88
2023-05-06T14:15:34.717Z,10.30
2023-05-06T14:18:02.175Z,8.57
2023-05-06T14:20:31.292Z,8.85
2023-05-06T14:22:58.686Z,9.93
2023-05-06T14:25:27.998Z,8.60
2023-05-06T14:27:55.780Z,8.73
2023-05-06T14:30:23.270Z,7.35
2023-05-06T14:32:50.820Z,8.75
2023-05-06T14:35:18.683Z,6.40
2023-05-06T14:37:47.181Z,6.88
2023-05-06T14:40:15.996Z,7.38
2023-05-06T14:42:43.753Z,7.18
2023-05-06T14:45:11.973Z,9.88
2023-05-06T14:47:40.707Z,7.88
2023-05-06T14:50:09.605Z,9.27
2023-05-06T14:52:39.344Z,7.85
2023-05-06T14:55:08.916Z,8.05
2023-05-06T14:57:36.810Z,7.90
2023-05-06T15:00:08.699Z,7.43
2023-05-06T15:02:38.469Z,6.88
2023-05-06T15:05:15.593Z,8.88
2023-05-06T15:07:43.397Z,6.93
2023-05-06T15:10:11.339Z,6.70
2023-05-06T15:12:38.780Z,7.22
2023-05-06T15:15:07.152Z,7.95
2023-05-06T15:17:34.664Z,8.43
2023-05-06T15:20:02.254Z,7.47
2023-05-06T15:22:29.632Z,8.57
2023-05-06T15:24:57.101Z,10.32
2023-05-06T15:27:25.041Z,7.03
2023-05-06T15:29:52.355Z,5.95
2023-05-06T15:32:19.781Z,5.82
2023-05-06T15:34:47.185Z,6.85
2023-05-06T15:37:19.155Z,5.70
2023-05-06T15:39:47.981Z,6.38
2023-05-06T15:42:16.981Z,6.80
2023-05-06T15:44:44.411Z,5.55
2023-05-06T15:47:11.950Z,6.65
2023-05-06T15:52:09.600Z,7.05
2023-05-06T15:54:37.489Z,6.53
2023-05-06T15:57:07.205Z,4.57
2023-05-06T15:59:34.819Z,5.22
2023-05-06T16:04:39.542Z,6.57
2023-05-06T16:07:07.601Z,5.25
2023-05-06T16:09:35.094Z,6.78
2023-05-06T16:12:02.492Z,5.90
2023-05-06T16:14:29.981Z,6.10
2023-05-06T16:16:58.285Z,5.68
2023-05-06T16:19:26.232Z,6.70
2023-05-06T16:21:53.592Z,5.15
2023-05-06T16:24:21.024Z,4.88
2023-05-06T16:26:48.488Z,7.03
2023-05-06T16:29:19.052Z,5.90
2023-05-06T16:31:49.635Z,6.07
2023-05-06T16:34:17.202Z,5.90
2023-05-06T16:36:44.675Z,7.30
2023-05-06T16:39:12.132Z,5.05
2023-05-06T16:41:39.467Z,5.22
2023-05-06T16:44:06.906Z,5.53
2023-05-06T16:46:34.345Z,6.82
2023-05-06T16:49:03.756Z,5.40
2023-05-06T16:51:32.114Z,5.72
2023-05-06T16:53:59.471Z,11.60
2023-05-06T16:56:32.892Z,6.35
2023-05-06T16:59:07.806Z,5.15
2023-05-06T17:01:35.155Z,4.70
2023-05-06T17:04:02.561Z,4.30
2023-05-06T17:06:31.489Z,6.15
2023-05-06T17:08:59.191Z,5.03
2023-05-06T17:11:26.561Z,5.07
2023-05-06T17:13:54.592Z,5.05
2023-05-06T17:16:22.256Z,7.43
2023-05-06T17:18:49.711Z,8.10
2023-05-06T17:21:17.174Z,8.13
2023-05-06T17:23:44.509Z,10.02
2023-05-06T17:26:12.012Z,13.30
2023-05-06T17:28:39.404Z,12.25
2023-05-06T17:31:08.234Z,10.23
2023-05-06T17:33:35.836Z,10.77
2023-05-06T17:36:03.279Z,13.25
2023-05-06T17:38:30.645Z,12.93
2023-05-06T17:40:57.978Z,11.98
2023-05-06T17:43:25.318Z,13.38
2023-05-06T17:45:52.700Z,12.35
2023-05-06T17:48:20.122Z,12.57
2023-05-06T17:50:47.538Z,13.65
2023-05-06T17:53:14.914Z,13.23
2023-05-06T17:55:42.443Z,12.07
2023-05-06T17:58:09.872Z,12.38
2023-05-06T18:00:38.272Z,14.43
2023-05-06T18:03:05.869Z,14.15
2023-05-06T18:05:33.361Z,14.38
2023-05-06T18:08:00.745Z,13.38
2023-05-06T18:10:28.129Z,12.43
2023-05-06T18:12:57.290Z,11.88
2023-05-06T18:15:26.262Z,15.00
2023-05-06T18:17:53.826Z,13.68
2023-05-06T18:20:21.232Z,13.05
2023-05-06T18:22:48.790Z,13.55
2023-05-06T18:25:17.352Z,15.23
2023-05-06T18:27:44.736Z,11.63
2023-05-06T18:30:12.361Z,10.88
2023-05-06T18:32:39.872Z,10.73
2023-05-06T18:35:08.029Z,11.85
2023-05-06T18:37:35.514Z,11.90
2023-05-06T18:40:03.809Z,14.52
2023-05-06T18:42:31.761Z,10.90
2023-05-06T18:45:01.476Z,11.02
2023-05-06T18:47:29.145Z,11.70
2023-05-06T18:49:57.610Z,13.23
2023-05-06T18:52:24.964Z,11.40
2023-05-06T18:54:52.382Z,11.20
2023-05-06T18:57:19.882Z,13.07
2023-05-06T18:59:47.343Z,11.20
2023-05-06T19:02:14.720Z,10.88
2023-05-06T19:04:42.112Z,10.90
2023-05-06T19:07:10.293Z,11.88
2023-05-06T19:09:39.214Z,9.75
2023-05-06T19:12:06.673Z,11.35
2023-05-06T19:14:34.802Z,12.75
2023-05-06T19:17:04.972Z,12.20
2023-05-06T19:19:32.523Z,12.10
2023-05-06T19:22:01.781Z,13.00
2023-05-06T19:24:29.985Z,10.77
2023-05-06T19:26:57.467Z,11.30
2023-05-06T19:29:24.992Z,13.00
2023-05-06T19:31:55.109Z,13.07
2023-05-06T19:34:22.387Z,17.40
2023-05-06T19:36:50.086Z,16.42
2023-05-06T19:39:19.137Z,13.77
2023-05-06T19:41:47.257Z,13.05
2023-05-06T19:44:14.781Z,15.27
2023-05-06T19:46:42.229Z,16.33
2023-05-06T19:49:09.721Z,13.00
2023-05-06T19:51:37.122Z,16.17
2023-05-06T19:54:04.529Z,14.77
2023-05-06T19:56:31.968Z,18.55
2023-05-06T19:58:59.327Z,17.45
2023-05-06T20:01:27.197Z,14.93
2023-05-06T20:03:55.245Z,15.93
2023-05-06T20:06:22.671Z,18.70
2023-05-06T20:08:50.031Z,17.10
2023-05-06T20:11:17.541Z,14.80
2023-05-06T20:13:45.266Z,17.20
2023-05-06T20:16:13.138Z,19.58
2023-05-06T20:18:40.633Z,21.40
2023-05-06T20:21:08.092Z,23.10
2023-05-06T20:23:35.379Z,23.42
2023-05-06T20:26:02.733Z,21.88
2023-05-06T20:28:31.461Z,22.65
2023-05-06T20:30:59.860Z,25.75
2023-05-06T20:33:27.310Z,24.27
2023-05-06T20:35:55.426Z,22.00
2023-05-06T20:38:22.808Z,21.15
2023-05-06T20:40:50.259Z,21.75
2023-05-06T20:43:17.674Z,27.88
2023-05-06T20:45:45.064Z,20.73
2023-05-06T20:48:14.964Z,23.95
2023-05-06T20:50:42.707Z,19.00
2023-05-06T20:53:10.305Z,25.80
2023-05-06T20:55:37.841Z,22.15
2023-05-06T20:58:05.400Z,22.13
2023-05-06T21:00:32.750Z,23.13
2023-05-06T21:03:00.757Z,23.15
2023-05-06T21:05:29.620Z,23.95
2023-05-06T21:07:59.921Z,23.90
2023-05-06T21:10:27.267Z,24.38
2023-05-06T21:12:54.793Z,27.75
2023-05-06T21:15:22.278Z,23.40
2023-05-06T21:17:49.864Z,25.92
2023-05-06T21:20:17.348Z,21.90
2023-05-06T21:22:45.104Z,25.88
2023-05-06T21:25:13.334Z,29.25
2023-05-06T21:27:40.812Z,25.25
2023-05-06T21:30:09.034Z,25.27
2023-05-06T21:32:36.468Z,26.33
2023-05-06T21:35:04.409Z,24.92
2023-05-06T21:37:31.958Z,26.77
2023-05-06T21:40:00.005Z,29.10
2023-05-06T21:42:27.809Z,27.00
2023-05-06T21:44:55.184Z,24.92
2023-05-06T21:47:22.667Z,29.63
2023-05-06T21:49:50.072Z,25.67
2023-05-06T21:52:17.497Z,29.38
2023-05-06T21:54:47.859Z,23.35
2023-05-06T21:57:16.620Z,24.40
2023-05-06T21:59:44.313Z,25.70
2023-05-06T22:02:11.897Z,28.17
2023-05-06T22:04:39.354Z,26.30
2023-05-06T22:07:07.688Z,27.42
2023-05-06T22:09:35.124Z,23.67
2023-05-06T22:12:06.859Z,23.73
2023-05-06T22:14:41.233Z,26.33
2023-05-06T22:17:10.425Z,26.60
2023-05-06T22:19:38.630Z,27.17
2023-05-06T22:22:06.755Z,25.80
2023-05-06T22:24:34.281Z,29.02
2023-05-06T22:27:04.118Z,23.58
2023-05-06T22:29:31.521Z,26.67
2023-05-06T22:31:58.974Z,27.27
2023-05-06T22:34:26.457Z,26.15
2023-05-06T22:36:53.822Z,24.52
2023-05-06T22:39:21.556Z,24.13
2023-05-06T22:41:50.763Z,20.58
2023-05-06T22:44:18.194Z,25.60
2023-05-06T22:46:45.665Z,23.92
2023-05-06T22:49:13.865Z,21.75
2023-05-06T22:51:41.588Z,22.85
2023-05-06T22:54:09.072Z,22.40
2023-05-06T22:56:36.373Z,23.92
2023-05-06T22:59:06.052Z,25.30
2023-05-06T23:01:33.643Z,25.17
2023-05-06T23:04:01.086Z,24.90
2023-05-06T23:06:28.563Z,25.77
2023-05-06T23:08:56.125Z,22.42
2023-05-06T23:11:23.519Z,24.17
2023-05-06T23:13:50.974Z,25.40
2023-05-06T23:16:19.835Z,21.98
2023-05-06T23:18:47.334Z,22.65
2023-05-06T23:21:15.093Z,24.27
2023-05-06T23:23:42.525Z,25.95
2023-05-06T23:26:10.539Z,25.23
2023-05-06T23:28:37.879Z,25.38
2023-05-06T23:31:05.355Z,23.88
2023-05-06T23:33:32.771Z,22.42
2023-05-06T23:36:00.954Z,22.25
2023-05-06T23:38:28.714Z,22.92
2023-05-06T23:40:56.031Z,23.50
2023-05-06T23:43:23.437Z,22.45
2023-05-06T23:45:51.065Z,22.45
2023-05-06T23:48:18.460Z,21.10
2023-05-06T23:50:45.878Z,25.92
2023-05-06T23:53:13.671Z,20.73
2023-05-06T23:55:42.699Z,20.38
2023-05-06T23:58:10.297Z,21.23
